Terminal Aerodrome Forecast
Issued by NWS Sioux Falls, SD

Home | Current Version | Previous Version | Text Only | Print | Product List | Glossary Off
Versions: 1 2 3 4 5 6 7 8 9 10 11 12 13 14 15 16 17 18 19

000
FTUS43 KFSD 261737
TAFFSD
TAF
KFSD 261737Z 2618/2718 VRB03KT P6SM SCT250
     FM270100 12006KT P6SM BKN150
     FM270400 12006KT P6SM SHRA VCTS BKN090CB
     FM270900 11007KT 3SM SHRA VCTS OVC040CB
     FM271100 10006KT P6SM BKN020 OVC040
     FM271500 18006KT P6SM SCT020 OVC045=

USA.gov is the U.S. government's official web portal to all federal, state and local government web resources and services.